createdAt,value
2022-11-05T00:11:19.446Z,6.4
2022-11-05T00:26:19.431Z,6.4
2022-11-05T00:41:19.429Z,6.6
2022-11-05T00:56:19.443Z,6.5
2022-11-05T01:11:19.429Z,6.4
2022-11-05T01:26:19.433Z,6.2
2022-11-05T01:41:19.437Z,6.1
2022-11-05T01:56:19.432Z,6.1
2022-11-05T02:11:19.431Z,6.1
2022-11-05T02:26:19.435Z,6.1
2022-11-05T02:41:19.442Z,6
2022-11-05T02:56:19.443Z,5.9
2022-11-05T03:11:19.436Z,5.9
2022-11-05T03:26:19.423Z,5.8
2022-11-05T03:41:19.429Z,5.9
2022-11-05T03:56:19.429Z,5.8
2022-11-05T04:11:19.442Z,5.8
2022-11-05T04:26:19.439Z,5.6
2022-11-05T04:41:19.431Z,5.6
2022-11-05T04:56:19.431Z,5.6
2022-11-05T05:11:19.435Z,5.6
2022-11-05T05:26:19.440Z,5.4
2022-11-05T05:41:19.435Z,5.4
2022-11-05T05:56:19.436Z,5.4
2022-11-05T06:11:19.425Z,5.4
2022-11-05T06:26:19.430Z,5.4
2022-11-05T06:41:19.414Z,5.2
2022-11-05T06:56:19.432Z,5.2
2022-11-05T07:11:19.429Z,5.4
2022-11-05T07:26:19.436Z,5.6
2022-11-05T07:41:19.425Z,5.8
2022-11-05T07:56:19.434Z,5.9
2022-11-05T08:11:19.437Z,5.9
2022-11-05T08:26:19.433Z,6.3
2022-11-05T08:41:19.435Z,6.5
2022-11-05T08:56:19.434Z,6.8
2022-11-05T09:11:19.433Z,6.9
2022-11-05T09:26:19.428Z,7.3
2022-11-05T09:41:19.424Z,7.6
2022-11-05T09:56:19.429Z,7.9
2022-11-05T10:11:19.429Z,8.2
2022-11-05T10:26:19.441Z,8.6
2022-11-05T10:41:19.427Z,9.1
2022-11-05T10:56:19.433Z,9.2
2022-11-05T11:11:19.435Z,9.4
2022-11-05T11:26:19.429Z,9.4
2022-11-05T11:41:19.436Z,9.6
2022-11-05T11:56:19.435Z,9.6
2022-11-05T12:11:19.433Z,9.8
2022-11-05T12:26:19.434Z,9.8
2022-11-05T12:41:19.446Z,10.1
2022-11-05T12:56:19.434Z,10.6
2022-11-05T13:11:19.423Z,10.6
2022-11-05T13:26:19.799Z,10.6
2022-11-05T13:41:19.425Z,10.4
2022-11-05T13:56:19.427Z,10.3
2022-11-05T14:11:19.455Z,10.5
2022-11-05T14:26:19.424Z,10.3
2022-11-05T14:41:19.469Z,10.3
2022-11-05T14:56:19.434Z,10.2
2022-11-05T15:11:19.434Z,10.5
2022-11-05T15:26:19.426Z,10.1
2022-11-05T15:41:19.433Z,9.9
2022-11-05T15:56:19.429Z,9.5
2022-11-05T16:11:19.433Z,9.4
2022-11-05T16:26:35.076Z,9.3
2022-11-05T16:41:19.440Z,9.2
2022-11-05T16:56:19.431Z,9
2022-11-05T17:11:19.430Z,9.1
2022-11-05T17:26:19.433Z,8.9
2022-11-05T17:41:19.431Z,8.9
2022-11-05T17:56:27.480Z,8.8
2022-11-05T18:11:19.432Z,8.8
2022-11-05T18:26:19.425Z,8.8
2022-11-05T18:41:19.429Z,8.8
2022-11-05T18:56:19.427Z,8.8
2022-11-05T19:11:19.437Z,8.6
2022-11-05T19:26:21.822Z,8.6
2022-11-05T19:41:19.430Z,8.6
2022-11-05T19:56:19.433Z,8.6
2022-11-05T20:11:19.440Z,8.5
2022-11-05T20:26:19.429Z,8.5
2022-11-05T20:41:19.430Z,8.4
2022-11-05T20:56:19.430Z,8.2
2022-11-05T21:11:19.428Z,8.2
2022-11-05T21:26:19.445Z,8.2
2022-11-05T21:41:19.419Z,8.3
2022-11-05T21:56:19.434Z,8.3
2022-11-05T22:11:19.481Z,8.4
2022-11-05T22:26:19.432Z,8.3
2022-11-05T22:41:19.433Z,8.4
2022-11-05T22:56:19.429Z,8.2
2022-11-05T23:11:19.425Z,8.1
2022-11-05T23:26:19.432Z,8
2022-11-05T23:41:19.423Z,8
2022-11-05T23:56:19.426Z,7.9
